createdAt,value
2022-10-21T00:01:16.641Z,1.00
2022-10-21T00:03:45.614Z,1.00
2022-10-21T00:06:14.273Z,1.00
2022-10-21T00:08:42.940Z,1.00
2022-10-21T00:11:11.785Z,1.00
2022-10-21T00:13:41.995Z,1.00
2022-10-21T00:16:14.423Z,1.00
2022-10-21T00:18:44.638Z,1.00
2022-10-21T00:21:15.046Z,1.00
2022-10-21T00:23:44.179Z,1.00
2022-10-21T00:26:13.618Z,1.00
2022-10-21T00:28:42.540Z,1.00
2022-10-21T00:31:14.434Z,1.00
2022-10-21T00:33:43.997Z,1.00
2022-10-21T00:36:15.571Z,1.00
2022-10-21T00:38:45.691Z,21.40
2022-10-21T00:41:15.819Z,24.30
2022-10-21T00:43:58.993Z,38.10
2022-10-21T00:46:38.949Z,41.90
2022-10-21T00:49:13.554Z,62.60
2022-10-21T00:51:43.243Z,52.30
2022-10-21T00:54:12.664Z,76.00
2022-10-21T00:56:45.282Z,6.00
2022-10-21T00:59:23.429Z,3.90
2022-10-21T01:01:53.848Z,72.40
2022-10-21T01:04:23.204Z,71.50
2022-10-21T01:06:52.335Z,26.40
2022-10-21T01:09:22.039Z,9.20
2022-10-21T01:11:51.268Z,39.80
2022-10-21T01:14:43.664Z,1.00
2022-10-21T01:17:43.759Z,1.00
2022-10-21T01:20:43.286Z,1.00
2022-10-21T01:23:36.052Z,1.00
2022-10-21T01:26:21.018Z,1.00
2022-10-21T01:29:06.982Z,1.00
2022-10-21T01:31:40.897Z,51.70
2022-10-21T01:34:16.054Z,27.30
2022-10-21T01:36:51.652Z,10.30
2022-10-21T01:39:26.746Z,73.40
2022-10-21T01:42:03.931Z,27.00
2022-10-21T01:44:37.341Z,1.00
2022-10-21T01:47:14.018Z,8.80
2022-10-21T01:49:48.130Z,1.00
2022-10-21T01:52:18.298Z,1.00
2022-10-21T01:54:52.116Z,1.00
2022-10-21T01:57:23.779Z,1.00
2022-10-21T01:59:57.855Z,1.00
2022-10-21T02:02:31.823Z,1.00
2022-10-21T02:05:05.327Z,1.00
2022-10-21T02:07:34.148Z,1.00
2022-10-21T02:10:02.873Z,1.00
2022-10-21T02:12:35.258Z,1.00
2022-10-21T02:15:08.261Z,1.00
2022-10-21T02:17:40.402Z,28.70
2022-10-21T02:20:12.142Z,99.90
2022-10-21T02:22:42.693Z,88.90
2022-10-21T02:25:17.381Z,13.40
2022-10-21T02:27:46.587Z,1.00
2022-10-21T02:30:16.040Z,1.00
2022-10-21T02:32:53.379Z,1.00
2022-10-21T02:35:35.550Z,1.00
2022-10-21T02:38:11.435Z,1.00
2022-10-21T02:40:44.670Z,1.00
2022-10-21T02:43:16.997Z,1.00
2022-10-21T02:45:47.965Z,1.00
2022-10-21T02:48:18.058Z,1.00
2022-10-21T02:50:46.860Z,1.00
2022-10-21T02:53:15.909Z,1.00
2022-10-21T02:55:44.628Z,1.00
2022-10-21T02:58:13.306Z,1.00
2022-10-21T03:00:42.011Z,1.00
2022-10-21T03:03:10.677Z,1.00
2022-10-21T03:05:40.678Z,1.00
2022-10-21T03:08:11.615Z,1.00
2022-10-21T03:10:40.304Z,1.00
2022-10-21T03:13:08.991Z,48.00
2022-10-21T03:15:37.688Z,1.40
2022-10-21T03:18:06.336Z,1.00
2022-10-21T03:20:34.972Z,1.00
2022-10-21T03:23:05.039Z,24.10
2022-10-21T03:25:35.681Z,1.00
2022-10-21T03:28:04.630Z,8.80
2022-10-21T03:30:33.406Z,37.50
2022-10-21T03:33:02.145Z,1.00
2022-10-21T03:35:30.840Z,1.00
2022-10-21T03:37:59.483Z,1.00
2022-10-21T03:40:30.441Z,2.20
2022-10-21T03:42:59.367Z,1.00
2022-10-21T03:45:28.517Z,1.00
2022-10-21T03:47:57.986Z,1.00
2022-10-21T03:50:26.959Z,1.00
2022-10-21T03:52:55.994Z,1.00
2022-10-21T03:55:25.382Z,1.00
2022-10-21T03:57:55.678Z,74.00
2022-10-21T04:00:28.261Z,10.00
2022-10-21T04:02:59.604Z,1.00
2022-10-21T04:05:28.352Z,1.00
2022-10-21T04:07:57.495Z,15.30
2022-10-21T04:10:26.284Z,22.70
2022-10-21T04:12:56.437Z,10.30
2022-10-21T04:15:25.045Z,1.00
2022-10-21T04:17:53.729Z,1.00
2022-10-21T04:20:22.603Z,1.00
2022-10-21T04:22:51.215Z,1.00
2022-10-21T04:25:19.922Z,1.00
2022-10-21T04:27:48.562Z,1.40
2022-10-21T04:30:18.777Z,69.10
2022-10-21T04:32:47.483Z,42.20
2022-10-21T04:35:17.266Z,43.50
2022-10-21T04:37:45.991Z,56.50
2022-10-21T04:40:14.684Z,78.50
2022-10-21T04:42:46.036Z,30.20
2022-10-21T04:45:14.898Z,1.00
2022-10-21T04:47:45.173Z,35.40
2022-10-21T04:50:13.761Z,13.90
2022-10-21T04:52:42.309Z,74.50
2022-10-21T04:55:11.542Z,73.00
2022-10-21T04:57:41.347Z,10.70
2022-10-21T05:00:11.573Z,6.40
2022-10-21T05:02:40.490Z,24.50
2022-10-21T05:05:11.346Z,13.40
2022-10-21T05:07:39.970Z,1.00
2022-10-21T05:10:09.270Z,84.00
2022-10-21T05:12:38.063Z,1.00
2022-10-21T05:15:07.429Z,23.10
2022-10-21T05:17:37.086Z,5.70
2022-10-21T05:20:08.970Z,1.00
2022-10-21T05:22:39.385Z,28.50
2022-10-21T05:25:10.872Z,1.00
2022-10-21T05:27:43.048Z,88.30
2022-10-21T05:30:13.017Z,1.00
2022-10-21T05:32:42.185Z,1.00
2022-10-21T05:35:12.219Z,1.00
2022-10-21T05:37:42.296Z,1.00
2022-10-21T05:40:11.758Z,1.00
2022-10-21T05:42:41.132Z,1.00
2022-10-21T05:45:11.356Z,1.00
2022-10-21T05:47:41.572Z,1.00
2022-10-21T05:50:11.260Z,1.00
2022-10-21T05:52:43.772Z,1.00
2022-10-21T05:55:12.554Z,1.00
2022-10-21T05:57:41.402Z,1.00
2022-10-21T06:00:11.555Z,1.00
2022-10-21T06:02:40.524Z,1.00
2022-10-21T06:05:09.916Z,1.00
2022-10-21T06:07:39.044Z,1.00
2022-10-21T06:10:12.192Z,1.00
2022-10-21T06:12:41.228Z,1.00
2022-10-21T06:15:10.709Z,1.00
2022-10-21T06:17:39.576Z,12.50
2022-10-21T06:20:09.172Z,48.70
2022-10-21T06:22:37.801Z,1.00
2022-10-21T06:25:08.772Z,1.00
2022-10-21T06:27:37.740Z,1.00
2022-10-21T06:30:07.296Z,1.00
2022-10-21T06:32:36.012Z,49.00
2022-10-21T06:35:05.073Z,73.30
2022-10-21T06:37:33.698Z,23.90
2022-10-21T06:40:02.424Z,99.90
2022-10-21T06:42:33.057Z,10.70
2022-10-21T06:45:01.821Z,20.60
2022-10-21T06:47:32.732Z,1.00
2022-10-21T06:50:03.195Z,15.20
2022-10-21T06:52:33.826Z,1.00
2022-10-21T06:55:02.502Z,99.90
2022-10-21T06:57:33.032Z,85.70
2022-10-21T07:00:01.658Z,72.00
2022-10-21T07:02:32.452Z,44.20
2022-10-21T07:05:01.043Z,46.50
2022-10-21T07:07:29.853Z,99.90
2022-10-21T07:09:58.724Z,99.90
2022-10-21T07:12:28.849Z,99.90
2022-10-21T07:14:58.880Z,99.90
2022-10-21T07:17:30.324Z,99.90
2022-10-21T07:19:59.042Z,99.90
2022-10-21T07:22:27.847Z,99.90
2022-10-21T07:24:56.775Z,99.90
2022-10-21T07:27:25.553Z,99.90
2022-10-21T07:29:54.173Z,99.90
2022-10-21T07:32:25.575Z,1.00
2022-10-21T07:34:54.202Z,99.90
2022-10-21T07:37:22.877Z,1.00
2022-10-21T07:39:51.604Z,99.90
2022-10-21T07:42:20.312Z,1.00
2022-10-21T07:44:53.239Z,99.90
2022-10-21T07:47:23.454Z,99.90
2022-10-21T07:49:52.204Z,1.00
2022-10-21T07:52:21.033Z,1.00
2022-10-21T07:54:49.834Z,1.00
2022-10-21T07:57:18.499Z,1.00
2022-10-21T07:59:47.251Z,1.00
2022-10-21T08:02:16.412Z,1.00
2022-10-21T08:04:46.471Z,1.00
2022-10-21T08:07:15.251Z,1.00
2022-10-21T08:09:43.908Z,1.00
2022-10-21T08:12:14.511Z,1.00
2022-10-21T08:14:44.105Z,1.00
2022-10-21T08:17:12.740Z,1.00
2022-10-21T08:19:41.504Z,1.00
2022-10-21T08:22:12.068Z,1.00
2022-10-21T08:24:42.372Z,1.00
2022-10-21T08:27:11.210Z,1.00
2022-10-21T08:29:40.157Z,99.90
2022-10-21T08:32:09.172Z,1.00
2022-10-21T08:34:38.402Z,99.90
2022-10-21T08:37:07.054Z,99.90
2022-10-21T08:39:37.086Z,1.00
2022-10-21T08:42:12.677Z,1.00
2022-10-21T08:44:50.502Z,1.00
2022-10-21T08:47:28.664Z,1.00
2022-10-21T08:50:01.787Z,99.90
2022-10-21T08:52:40.285Z,99.90
2022-10-21T08:55:17.362Z,99.90
2022-10-21T08:57:47.221Z,99.90
2022-10-21T09:00:19.319Z,99.90
2022-10-21T09:03:08.557Z,99.90
2022-10-21T09:06:14.133Z,99.90
2022-10-21T09:08:53.763Z,99.90
2022-10-21T09:11:35.849Z,99.90
2022-10-21T09:14:43.710Z,99.90
2022-10-21T09:17:28.687Z,99.90
2022-10-21T09:20:10.218Z,99.90
2022-10-21T09:22:53.012Z,99.90
2022-10-21T09:25:25.859Z,99.90
2022-10-21T09:27:59.110Z,99.90
2022-10-21T09:30:28.418Z,99.90
2022-10-21T09:32:59.785Z,99.90
2022-10-21T09:35:37.981Z,99.90
2022-10-21T09:38:13.921Z,99.90
2022-10-21T09:40:42.620Z,99.90
2022-10-21T09:43:19.756Z,99.90
2022-10-21T09:45:49.012Z,1.00
2022-10-21T09:48:35.132Z,99.90
2022-10-21T09:51:15.536Z,99.90
2022-10-21T09:53:53.872Z,99.90
2022-10-21T09:56:26.407Z,99.90
2022-10-21T09:59:07.769Z,99.90
2022-10-21T10:01:38.080Z,99.90
2022-10-21T10:04:12.892Z,99.90
2022-10-21T10:06:43.326Z,99.90
2022-10-21T10:09:18.546Z,99.90
2022-10-21T10:11:56.213Z,99.90
2022-10-21T10:14:33.125Z,99.90
2022-10-21T10:17:30.900Z,1.00
2022-10-21T10:20:13.348Z,1.00
2022-10-21T10:22:43.430Z,1.00
2022-10-21T10:25:26.608Z,99.90
2022-10-21T10:27:57.723Z,99.90
2022-10-21T10:30:37.375Z,1.00
2022-10-21T10:33:11.776Z,1.00
2022-10-21T10:35:47.423Z,99.90
2022-10-21T10:38:22.096Z,99.90
2022-10-21T10:40:54.177Z,1.00
2022-10-21T10:43:29.025Z,99.90
2022-10-21T10:46:02.616Z,1.00
2022-10-21T10:48:38.736Z,1.00
2022-10-21T10:51:09.728Z,1.00
2022-10-21T10:53:39.654Z,1.00
2022-10-21T10:56:21.967Z,1.00
2022-10-21T10:58:59.384Z,1.00
2022-10-21T11:01:36.677Z,99.90
2022-10-21T11:04:18.729Z,1.00
2022-10-21T11:06:52.828Z,1.00
2022-10-21T11:09:25.094Z,1.00
2022-10-21T11:11:56.499Z,1.00
2022-10-21T11:14:26.258Z,99.90
2022-10-21T11:17:07.916Z,1.00
2022-10-21T11:19:47.076Z,99.90
2022-10-21T11:22:23.031Z,99.90
2022-10-21T11:25:02.807Z,99.90
2022-10-21T11:27:48.699Z,1.00
2022-10-21T11:30:19.987Z,99.90
2022-10-21T11:33:04.843Z,1.00
2022-10-21T11:35:49.310Z,99.90
2022-10-21T11:38:58.965Z,99.90
2022-10-21T11:41:35.281Z,99.90
2022-10-21T11:44:17.585Z,1.00
2022-10-21T11:46:56.180Z,1.00
2022-10-21T11:49:41.966Z,99.90
2022-10-21T11:52:20.999Z,99.90
2022-10-21T11:55:34.838Z,1.00
2022-10-21T11:58:14.921Z,99.90
2022-10-21T12:00:55.155Z,99.90
2022-10-21T12:03:45.032Z,1.00
2022-10-21T12:06:24.841Z,99.90
2022-10-21T12:08:59.654Z,1.00
2022-10-21T12:11:35.181Z,99.90
2022-10-21T12:14:14.770Z,99.90
2022-10-21T12:16:44.717Z,99.90
2022-10-21T12:19:17.600Z,99.90
2022-10-21T12:21:48.122Z,1.00
2022-10-21T12:24:27.071Z,99.90
2022-10-21T12:27:01.000Z,99.90
2022-10-21T12:29:52.300Z,1.00
2022-10-21T12:32:27.321Z,99.90
2022-10-21T12:34:56.962Z,99.90
2022-10-21T12:38:04.743Z,99.90
2022-10-21T12:40:40.603Z,1.00
2022-10-21T12:43:22.553Z,1.00
2022-10-21T12:46:06.013Z,1.00
2022-10-21T12:48:38.746Z,1.00
2022-10-21T12:51:09.945Z,1.00
2022-10-21T12:53:41.762Z,1.00
2022-10-21T12:56:13.832Z,1.00
2022-10-21T12:58:45.673Z,1.00
2022-10-21T13:01:37.559Z,1.00
2022-10-21T13:04:07.141Z,1.00
2022-10-21T13:06:54.256Z,1.00
2022-10-21T13:09:41.779Z,1.00
2022-10-21T13:12:29.030Z,1.00
2022-10-21T13:14:59.191Z,1.00
2022-10-21T13:17:47.629Z,1.00
2022-10-21T13:20:48.492Z,99.90
2022-10-21T13:23:40.041Z,99.90
2022-10-21T13:26:21.655Z,99.90
2022-10-21T13:29:20.522Z,1.00
2022-10-21T13:31:51.157Z,99.90
2022-10-21T13:34:29.826Z,99.90
2022-10-21T13:36:59.436Z,99.90
2022-10-21T13:39:32.265Z,99.90
2022-10-21T13:42:05.445Z,1.00
2022-10-21T13:44:42.338Z,99.90
2022-10-21T13:47:30.522Z,1.00
2022-10-21T13:50:08.751Z,1.00
2022-10-21T13:52:37.793Z,1.00
2022-10-21T13:55:07.783Z,1.00
2022-10-21T13:57:38.109Z,1.00
2022-10-21T14:00:12.179Z,99.90
2022-10-21T14:02:48.306Z,99.90
2022-10-21T14:05:36.196Z,99.90
2022-10-21T14:08:13.687Z,99.90
2022-10-21T14:10:47.517Z,99.90
2022-10-21T14:13:17.086Z,99.90
2022-10-21T14:15:48.682Z,99.90
2022-10-21T14:18:30.203Z,99.90
2022-10-21T14:21:01.988Z,99.90
2022-10-21T14:23:31.546Z,99.90
2022-10-21T14:26:07.095Z,1.00
2022-10-21T14:28:37.366Z,99.90
2022-10-21T14:31:11.850Z,99.90
2022-10-21T14:33:43.484Z,99.90
2022-10-21T14:36:15.589Z,99.90
2022-10-21T14:38:53.055Z,99.90
2022-10-21T14:41:24.964Z,99.90
2022-10-21T14:43:55.701Z,99.90
2022-10-21T14:46:26.053Z,99.90
2022-10-21T14:48:59.676Z,99.90
2022-10-21T14:51:29.008Z,1.00
2022-10-21T14:54:00.162Z,99.90
2022-10-21T14:56:34.039Z,99.90
2022-10-21T14:59:10.170Z,99.90
2022-10-21T15:01:44.227Z,1.00
2022-10-21T15:04:42.371Z,99.90
2022-10-21T15:07:19.950Z,99.90
2022-10-21T15:10:16.928Z,99.90
2022-10-21T15:12:50.482Z,1.00
2022-10-21T15:15:54.148Z,1.00
2022-10-21T15:18:31.110Z,1.00
2022-10-21T15:21:05.455Z,99.90
2022-10-21T15:23:37.205Z,99.90
2022-10-21T15:26:13.810Z,99.90
2022-10-21T15:28:42.993Z,99.90
2022-10-21T15:31:18.142Z,99.90
2022-10-21T15:33:50.031Z,99.90
2022-10-21T15:36:20.399Z,1.00
2022-10-21T15:38:50.227Z,99.90
2022-10-21T15:41:22.543Z,1.00
2022-10-21T15:43:59.874Z,99.90
2022-10-21T15:46:30.755Z,99.90
2022-10-21T15:49:06.914Z,1.00
2022-10-21T15:51:39.243Z,99.90
2022-10-21T15:54:09.344Z,99.90
2022-10-21T15:56:40.201Z,1.00
2022-10-21T15:59:13.571Z,1.00
2022-10-21T16:01:44.062Z,1.00
2022-10-21T16:04:18.161Z,1.00
2022-10-21T16:06:49.045Z,99.90
2022-10-21T16:09:21.094Z,1.00
2022-10-21T16:12:00.149Z,99.90
2022-10-21T16:14:31.811Z,99.90
2022-10-21T16:17:03.180Z,1.00
2022-10-21T16:19:36.483Z,1.00
2022-10-21T16:22:12.437Z,1.00
2022-10-21T16:24:42.519Z,99.90
2022-10-21T16:27:31.106Z,1.00
2022-10-21T16:30:17.668Z,1.00
2022-10-21T16:32:48.043Z,1.00
2022-10-21T16:35:20.805Z,1.00
2022-10-21T16:37:56.015Z,1.00
2022-10-21T16:40:28.089Z,1.00
2022-10-21T16:42:59.653Z,99.90
2022-10-21T16:45:30.803Z,99.90
2022-10-21T16:48:01.866Z,99.90
2022-10-21T16:50:39.684Z,99.90
2022-10-21T16:53:09.666Z,99.90
2022-10-21T16:55:41.317Z,99.90
2022-10-21T16:58:10.941Z,99.90
2022-10-21T17:00:41.467Z,1.00
2022-10-21T17:03:14.323Z,99.90
2022-10-21T17:05:45.198Z,99.90
2022-10-21T17:08:15.631Z,99.90
2022-10-21T17:10:47.927Z,99.90
2022-10-21T17:13:16.926Z,99.90
2022-10-21T17:15:48.163Z,99.90
2022-10-21T17:18:17.750Z,99.90
2022-10-21T17:20:50.973Z,99.90
2022-10-21T17:23:19.991Z,99.90
2022-10-21T17:25:48.855Z,99.90
2022-10-21T17:28:18.407Z,99.90
2022-10-21T17:30:48.166Z,99.90
2022-10-21T17:33:19.647Z,99.90
2022-10-21T17:35:51.497Z,99.90
2022-10-21T17:38:21.357Z,99.90
2022-10-21T17:40:50.472Z,99.90
2022-10-21T17:43:21.344Z,99.90
2022-10-21T17:45:50.409Z,99.90
2022-10-21T17:48:20.340Z,99.90
2022-10-21T17:50:59.399Z,99.90
2022-10-21T17:53:31.493Z,99.90
2022-10-21T17:56:04.258Z,99.90
2022-10-21T17:58:35.058Z,99.90
2022-10-21T18:01:13.593Z,99.90
2022-10-21T18:03:42.980Z,99.90
2022-10-21T18:06:16.041Z,99.90
2022-10-21T18:08:45.378Z,1.00
2022-10-21T18:11:19.158Z,1.00
2022-10-21T18:13:55.259Z,1.00
2022-10-21T18:16:26.232Z,1.00
2022-10-21T18:18:57.312Z,1.00
2022-10-21T18:21:33.142Z,1.00
2022-10-21T18:24:02.049Z,1.00
2022-10-21T18:26:32.802Z,1.00
2022-10-21T18:29:03.982Z,1.00
2022-10-21T18:31:35.366Z,34.20
2022-10-21T18:34:05.959Z,99.90
2022-10-21T18:36:38.612Z,65.70
2022-10-21T18:39:07.624Z,93.30
2022-10-21T18:41:38.718Z,1.00
2022-10-21T18:44:09.617Z,1.00
2022-10-21T18:46:40.545Z,1.00
2022-10-21T18:49:13.135Z,1.00
2022-10-21T18:51:44.345Z,1.00
2022-10-21T18:54:13.708Z,1.00
2022-10-21T18:56:42.673Z,1.00
2022-10-21T18:59:12.481Z,1.00
2022-10-21T19:01:41.715Z,1.00
2022-10-21T19:04:10.729Z,1.00
2022-10-21T19:06:41.530Z,1.00
2022-10-21T19:09:14.419Z,1.00
2022-10-21T19:11:44.210Z,1.00
2022-10-21T19:14:14.457Z,1.00
2022-10-21T19:16:44.568Z,1.00
2022-10-21T19:19:17.239Z,1.00
2022-10-21T19:21:46.632Z,1.00
2022-10-21T19:24:21.172Z,1.00
2022-10-21T19:26:55.050Z,1.00
2022-10-21T19:29:25.011Z,1.00
2022-10-21T19:31:55.786Z,1.00
2022-10-21T19:34:27.758Z,1.00
2022-10-21T19:36:56.579Z,1.00
2022-10-21T19:39:26.975Z,1.00
2022-10-21T19:41:57.097Z,1.00
2022-10-21T19:44:27.255Z,1.00
2022-10-21T19:46:56.220Z,1.00
2022-10-21T19:49:25.039Z,99.90
2022-10-21T19:51:53.798Z,1.00
2022-10-21T19:54:22.668Z,99.90
2022-10-21T19:56:53.270Z,99.90
2022-10-21T19:59:22.998Z,99.90
2022-10-21T20:01:51.738Z,99.90
2022-10-21T20:04:20.971Z,99.90
2022-10-21T20:06:49.971Z,99.90
2022-10-21T20:09:18.796Z,99.90
2022-10-21T20:11:47.473Z,99.90
2022-10-21T20:14:18.624Z,99.90
2022-10-21T20:16:49.983Z,99.90
2022-10-21T20:19:18.660Z,99.90
2022-10-21T20:21:48.197Z,99.90
2022-10-21T20:24:17.974Z,99.90
2022-10-21T20:26:49.307Z,99.90
2022-10-21T20:29:19.912Z,99.90
2022-10-21T20:31:48.640Z,99.90
2022-10-21T20:34:18.769Z,99.90
2022-10-21T20:36:47.444Z,99.90
2022-10-21T20:39:16.189Z,99.90
2022-10-21T20:41:44.924Z,99.90
2022-10-21T20:44:17.082Z,99.90
2022-10-21T20:46:47.760Z,99.90
2022-10-21T20:49:16.555Z,99.90
2022-10-21T20:51:45.160Z,99.90
2022-10-21T20:54:16.571Z,99.90
2022-10-21T20:56:46.281Z,99.90
2022-10-21T20:59:16.410Z,99.90
2022-10-21T21:01:48.635Z,99.90
2022-10-21T21:04:20.772Z,99.90
2022-10-21T21:06:51.004Z,99.90
2022-10-21T21:12:10.294Z,99.90
2022-10-21T21:14:39.673Z,99.90
2022-10-21T21:17:09.741Z,99.90
2022-10-21T21:19:40.033Z,99.90
2022-10-21T21:22:09.114Z,99.90
2022-10-21T21:24:37.842Z,99.90
2022-10-21T21:27:06.529Z,99.90
2022-10-21T21:29:35.829Z,99.90
2022-10-21T21:32:04.565Z,99.90
2022-10-21T21:34:35.459Z,99.90
2022-10-21T21:37:04.242Z,99.90
2022-10-21T21:39:33.105Z,99.90
2022-10-21T21:42:01.751Z,99.90
2022-10-21T21:44:31.068Z,99.90
2022-10-21T21:46:59.826Z,99.90
2022-10-21T21:49:28.543Z,99.90
2022-10-21T21:51:58.774Z,99.90
2022-10-21T21:54:28.106Z,99.90
2022-10-21T21:57:26.264Z,99.90
2022-10-21T21:59:47.324Z,99.90
2022-10-21T22:02:16.051Z,99.90
2022-10-21T22:04:45.889Z,99.90
2022-10-21T22:07:15.932Z,99.90
2022-10-21T22:09:44.524Z,99.90
2022-10-21T22:12:14.701Z,99.90
2022-10-21T22:14:44.118Z,99.90
2022-10-21T22:17:12.840Z,99.90
2022-10-21T22:19:41.769Z,99.90
2022-10-21T22:22:10.512Z,99.90
2022-10-21T22:24:41.661Z,99.90
2022-10-21T22:27:10.324Z,99.90
2022-10-21T22:29:39.260Z,99.90
2022-10-21T22:32:08.024Z,99.90
2022-10-21T22:34:36.686Z,99.90
2022-10-21T22:37:05.345Z,99.90
2022-10-21T22:39:34.040Z,99.90
2022-10-21T22:42:04.215Z,99.90
2022-10-21T22:44:32.899Z,99.90
2022-10-21T22:47:01.568Z,99.90
2022-10-21T22:49:30.251Z,99.90
2022-10-21T22:51:58.949Z,99.90
2022-10-21T22:54:47.860Z,99.90
2022-10-21T22:57:17.815Z,99.90
2022-10-21T22:59:50.620Z,99.90
2022-10-21T23:02:21.932Z,99.90
2022-10-21T23:04:50.622Z,99.90
2022-10-21T23:07:19.288Z,99.90
2022-10-21T23:09:48.018Z,99.90
2022-10-21T23:12:18.229Z,99.90
2022-10-21T23:14:47.069Z,99.90
2022-10-21T23:17:15.803Z,99.90
2022-10-21T23:19:44.699Z,99.90
2022-10-21T23:22:13.320Z,99.90
2022-10-21T23:24:42.051Z,99.90
2022-10-21T23:27:11.049Z,99.90
2022-10-21T23:29:41.054Z,99.90
2022-10-21T23:32:09.655Z,99.90
2022-10-21T23:34:38.256Z,99.90
2022-10-21T23:37:06.980Z,99.90
2022-10-21T23:39:35.727Z,99.90
2022-10-21T23:42:05.080Z,99.90
2022-10-21T23:44:33.716Z,99.90
2022-10-21T23:47:03.665Z,99.90
2022-10-21T23:49:32.300Z,99.90
2022-10-21T23:52:01.622Z,99.90
2022-10-21T23:54:31.324Z,1.00
2022-10-21T23:57:00.265Z,99.90
2022-10-21T23:59:28.872Z,99.90
